createdAt,value
2022-11-20T00:01:49.639Z,100871.94
2022-11-20T00:05:13.037Z,100856.53
2022-11-20T00:08:35.390Z,100859.09
2022-11-20T00:11:57.154Z,100858.22
2022-11-20T00:15:19.284Z,100855.63
2022-11-20T00:18:40.869Z,100853.06
2022-11-20T00:22:03.976Z,100844.50
2022-11-20T00:25:25.455Z,100842.75
2022-11-20T00:28:53.620Z,100849.53
2022-11-20T00:32:15.549Z,100842.63
2022-11-20T00:35:37.722Z,100849.53
2022-11-20T00:39:02.032Z,100829.06
2022-11-20T00:42:24.120Z,100836.72
2022-11-20T00:45:46.226Z,100839.22
2022-11-20T00:49:08.327Z,100850.25
2022-11-20T00:52:30.011Z,100845.97
2022-11-20T00:55:57.655Z,100839.09
2022-11-20T00:59:20.074Z,100835.66
2022-11-20T01:02:42.352Z,100830.53
2022-11-20T01:06:05.241Z,100824.59
2022-11-20T01:09:26.976Z,100820.28
2022-11-20T01:13:10.566Z,100820.28
2022-11-20T01:16:34.154Z,100797.25
2022-11-20T01:19:55.925Z,100804.19
2022-11-20T01:23:18.024Z,100797.38
2022-11-20T01:26:41.939Z,100794.72
2022-11-20T01:30:06.053Z,100801.50
2022-11-20T01:33:28.365Z,100804.06
2022-11-20T01:36:51.110Z,100798.06
2022-11-20T01:40:14.112Z,100790.28
2022-11-20T01:43:36.009Z,100785.19
2022-11-20T01:47:01.540Z,100769.75
2022-11-20T01:50:26.830Z,100786.09
2022-11-20T01:53:49.299Z,100797.06
2022-11-20T01:57:14.337Z,100780.00
2022-11-20T02:00:36.385Z,100790.34
2022-11-20T02:04:01.324Z,100779.34
2022-11-20T02:07:25.348Z,100774.25
2022-11-20T02:10:47.455Z,100781.91
2022-11-20T02:14:10.125Z,100790.41
2022-11-20T02:17:32.120Z,100787.84
2022-11-20T02:21:04.351Z,100780.19
2022-11-20T02:24:27.645Z,100777.53
2022-11-20T02:27:50.251Z,100768.16
2022-11-20T02:31:12.287Z,100757.06
2022-11-20T02:34:34.482Z,100756.22
2022-11-20T02:37:58.977Z,100751.03
2022-11-20T02:41:22.246Z,100752.69
2022-11-20T02:44:44.488Z,100740.78
2022-11-20T02:48:08.546Z,100742.38
2022-11-20T02:51:30.855Z,100751.78
2022-11-20T02:54:52.863Z,100745.81
2022-11-20T02:58:16.296Z,100740.72
2022-11-20T03:01:38.320Z,100749.22
2022-11-20T03:05:02.626Z,100748.38
2022-11-20T03:08:24.403Z,100756.00
2022-11-20T03:11:46.529Z,100752.56
2022-11-20T03:15:11.616Z,100747.47
2022-11-20T03:18:33.665Z,100739.03
2022-11-20T03:21:55.130Z,100734.72
2022-11-20T03:25:17.510Z,100733.00
2022-11-20T03:28:39.488Z,100733.88
2022-11-20T03:32:02.597Z,100739.78
2022-11-20T03:35:24.393Z,100741.47
2022-11-20T03:38:46.928Z,100737.22
2022-11-20T03:42:28.953Z,100744.13
2022-11-20T03:45:50.972Z,100740.72
2022-11-20T03:49:13.876Z,100730.56
2022-11-20T03:52:35.686Z,100703.88
2022-11-20T03:55:57.681Z,100714.28
2022-11-20T03:59:19.753Z,100720.28
2022-11-20T04:02:41.723Z,100719.44
2022-11-20T04:06:07.184Z,100712.63
2022-11-20T04:09:29.186Z,100705.75
2022-11-20T04:12:50.883Z,100703.34
2022-11-20T04:16:12.815Z,100705.88
2022-11-20T04:19:34.349Z,100713.59
2022-11-20T04:22:57.968Z,100701.78
2022-11-20T04:26:19.803Z,100705.22
2022-11-20T04:29:41.415Z,100696.69
2022-11-20T04:33:03.302Z,100698.41
2022-11-20T04:36:27.111Z,100704.38
2022-11-20T04:39:50.657Z,100699.31
2022-11-20T04:43:12.568Z,100695.09
2022-11-20T04:46:37.171Z,100694.22
2022-11-20T04:49:59.257Z,100693.41
2022-11-20T04:53:21.791Z,100693.34
2022-11-20T04:56:44.915Z,100697.69
2022-11-20T05:00:08.149Z,100693.41
2022-11-20T05:03:29.852Z,100694.28
2022-11-20T05:06:52.247Z,100681.53
2022-11-20T05:10:14.150Z,100689.25
2022-11-20T05:13:37.895Z,100690.09
2022-11-20T05:16:59.555Z,100687.50
2022-11-20T05:20:21.928Z,100695.16
2022-11-20T05:23:44.109Z,100688.25
2022-11-20T05:27:05.851Z,100688.25
2022-11-20T05:30:29.370Z,100693.38
2022-11-20T05:33:50.930Z,100688.28
2022-11-20T05:37:12.553Z,100686.63
2022-11-20T05:40:34.718Z,100689.25
2022-11-20T05:43:58.946Z,100696.00
2022-11-20T05:47:22.706Z,100686.53
2022-11-20T05:50:44.432Z,100700.25
2022-11-20T05:54:06.591Z,100695.09
2022-11-20T05:57:28.656Z,100701.09
2022-11-20T06:00:50.713Z,100699.41
2022-11-20T06:04:14.090Z,100705.41
2022-11-20T06:07:36.062Z,100712.19
2022-11-20T06:10:58.105Z,100713.91
2022-11-20T06:14:20.065Z,100701.03
2022-11-20T06:17:41.666Z,100713.91
2022-11-20T06:21:07.265Z,100707.16
2022-11-20T06:24:28.676Z,100705.47
2022-11-20T06:27:50.684Z,100710.59
2022-11-20T06:31:14.550Z,100702.09
2022-11-20T06:34:36.189Z,100700.47
2022-11-20T06:37:59.565Z,100711.53
2022-11-20T06:41:23.242Z,100708.97
2022-11-20T06:44:44.798Z,100725.16
2022-11-20T06:48:06.741Z,100711.56
2022-11-20T06:51:28.558Z,100715.88
2022-11-20T06:54:51.969Z,100722.72
2022-11-20T06:58:13.732Z,100727.88
2022-11-20T07:01:36.458Z,100726.25
2022-11-20T07:04:58.179Z,100728.03
2022-11-20T07:08:20.274Z,100726.34
2022-11-20T07:11:43.728Z,100737.56
2022-11-20T07:15:06.663Z,100732.44
2022-11-20T07:18:28.564Z,100735.91
2022-11-20T07:21:50.754Z,100739.31
2022-11-20T07:25:12.973Z,100747.03
2022-11-20T07:28:36.762Z,100729.13
2022-11-20T07:31:58.752Z,100724.84
2022-11-20T07:35:21.253Z,100753.16
2022-11-20T07:38:43.099Z,100748.94
2022-11-20T07:42:05.247Z,100754.13
2022-11-20T07:45:28.420Z,100761.84
2022-11-20T07:48:50.242Z,100757.69
2022-11-20T07:52:12.548Z,100757.78
2022-11-20T07:55:35.550Z,100757.81
2022-11-20T07:58:57.067Z,100764.69
2022-11-20T08:02:20.351Z,100757.03
2022-11-20T08:05:42.478Z,100755.38
2022-11-20T08:09:04.445Z,100747.72
2022-11-20T08:12:44.123Z,100742.56
2022-11-20T08:16:06.863Z,100756.22
2022-11-20T08:19:30.690Z,100751.81
2022-11-20T08:22:54.319Z,100761.38
2022-11-20T08:26:16.354Z,100758.88
2022-11-20T08:29:38.343Z,100758.03
2022-11-20T08:33:04.461Z,100752.91
2022-11-20T08:36:30.440Z,100741.88
2022-11-20T08:39:53.794Z,100745.41
2022-11-20T08:43:15.394Z,100747.31
2022-11-20T08:46:39.225Z,100748.25
2022-11-20T08:50:01.027Z,100749.25
2022-11-20T08:53:24.333Z,100753.56
2022-11-20T08:56:46.178Z,100748.44
2022-11-20T09:00:10.338Z,100757.88
2022-11-20T09:03:35.052Z,100761.31
2022-11-20T09:06:56.927Z,100758.72
2022-11-20T09:10:24.604Z,100762.16
2022-11-20T09:13:46.880Z,100754.50
2022-11-20T09:17:09.024Z,100768.16
2022-11-20T09:20:32.185Z,100761.31
2022-11-20T09:23:54.132Z,100763.91
2022-11-20T09:27:21.738Z,100758.84
2022-11-20T09:30:43.952Z,100753.88
2022-11-20T09:34:06.085Z,100762.56
2022-11-20T09:37:28.066Z,100755.78
2022-11-20T09:40:59.510Z,100759.25
2022-11-20T09:44:39.024Z,100770.41
2022-11-20T09:48:24.002Z,100761.94
2022-11-20T09:51:56.015Z,100770.50
2022-11-20T09:55:19.170Z,100761.13
2022-11-20T09:58:44.213Z,100772.31
2022-11-20T10:02:22.215Z,100771.59
2022-11-20T10:05:47.720Z,100769.94
2022-11-20T10:09:23.967Z,100772.56
2022-11-20T10:13:03.989Z,100766.72
2022-11-20T10:16:39.479Z,100762.47
2022-11-20T10:20:18.446Z,100767.75
2022-11-20T10:24:14.135Z,100761.03
2022-11-20T10:27:51.112Z,100761.94
2022-11-20T10:31:28.871Z,100759.34
2022-11-20T10:34:55.453Z,100756.78
2022-11-20T10:38:24.649Z,100755.16
2022-11-20T10:41:51.681Z,100764.59
2022-11-20T10:45:24.059Z,100770.66
2022-11-20T10:48:47.772Z,100765.59
2022-11-20T10:52:18.728Z,100769.09
2022-11-20T10:55:47.624Z,100754.63
2022-11-20T10:59:37.577Z,100765.75
2022-11-20T11:03:03.505Z,100771.72
2022-11-20T11:06:37.620Z,100778.53
2022-11-20T11:09:59.929Z,100768.28
2022-11-20T11:13:25.354Z,100776.78
2022-11-20T11:16:53.145Z,100776.75
2022-11-20T11:20:19.417Z,100761.31
2022-11-20T11:23:43.067Z,100763.78
2022-11-20T11:27:10.131Z,100786.84
2022-11-20T11:30:50.318Z,100772.31
2022-11-20T11:34:16.168Z,100780.88
2022-11-20T11:37:40.234Z,100784.28
2022-11-20T11:41:03.003Z,100786.03
2022-11-20T11:44:48.246Z,100791.22
2022-11-20T11:48:11.854Z,100788.63
2022-11-20T11:51:40.178Z,100792.88
2022-11-20T11:55:11.474Z,100790.25
2022-11-20T11:58:46.378Z,100773.00
2022-11-20T12:02:26.393Z,100795.16
2022-11-20T12:05:53.467Z,100789.09
2022-11-20T12:09:15.438Z,100796.72
2022-11-20T12:12:42.564Z,100805.97
2022-11-20T12:16:06.232Z,100813.53
2022-11-20T12:19:31.521Z,100808.22
2022-11-20T12:23:01.952Z,100816.63
2022-11-20T12:26:41.877Z,100825.94
2022-11-20T12:30:10.617Z,100822.41
2022-11-20T12:33:57.865Z,100828.34
2022-11-20T12:37:32.452Z,100825.78
2022-11-20T12:41:03.339Z,100837.72
2022-11-20T12:44:59.232Z,100829.13
2022-11-20T12:48:46.484Z,100839.19
2022-11-20T12:52:23.402Z,100840.69
2022-11-20T12:55:52.397Z,100831.13
2022-11-20T12:59:40.984Z,100851.50
2022-11-20T13:03:26.671Z,100858.13
2022-11-20T13:06:49.171Z,100860.53
2022-11-20T13:10:19.941Z,100856.97
2022-11-20T13:13:55.955Z,100867.88
2022-11-20T13:17:26.048Z,100876.19
2022-11-20T13:20:49.301Z,100877.84
2022-11-20T13:24:25.462Z,100883.63
2022-11-20T13:27:50.267Z,100877.50
2022-11-20T13:31:30.962Z,100885.91
2022-11-20T13:34:59.038Z,100882.34
2022-11-20T13:38:20.803Z,100888.22
2022-11-20T13:41:43.792Z,100884.66
2022-11-20T13:45:13.049Z,100893.03
2022-11-20T13:48:40.627Z,100898.88
2022-11-20T13:52:31.365Z,100892.75
2022-11-20T13:56:00.587Z,100893.47
2022-11-20T13:59:44.105Z,100891.56
2022-11-20T14:03:15.870Z,100897.31
2022-11-20T14:06:43.755Z,100898.97
2022-11-20T14:10:08.168Z,100904.78
2022-11-20T14:13:30.054Z,100908.06
2022-11-20T14:16:52.915Z,100898.56
2022-11-20T14:20:19.921Z,100898.38
2022-11-20T14:23:41.904Z,100897.41
2022-11-20T14:27:06.018Z,100893.84
2022-11-20T14:30:30.593Z,100897.16
2022-11-20T14:33:53.295Z,100896.19
2022-11-20T14:37:21.690Z,100887.56
2022-11-20T14:40:44.458Z,100890.88
2022-11-20T14:44:11.483Z,100892.38
2022-11-20T14:47:34.459Z,100893.88
2022-11-20T14:50:56.436Z,100904.72
2022-11-20T14:54:20.867Z,100893.53
2022-11-20T14:57:43.232Z,100897.69
2022-11-20T15:01:08.833Z,100889.97
2022-11-20T15:04:30.923Z,100885.72
2022-11-20T15:07:55.090Z,100893.19
2022-11-20T15:11:20.651Z,100900.78
2022-11-20T15:14:42.618Z,100898.16
2022-11-20T15:18:06.533Z,100891.13
2022-11-20T15:21:28.502Z,100895.31
2022-11-20T15:24:50.588Z,100889.34
2022-11-20T15:28:20.198Z,100874.63
2022-11-20T15:31:44.444Z,100886.56
2022-11-20T15:35:11.560Z,100883.00
2022-11-20T15:38:34.048Z,100860.47
2022-11-20T15:41:58.305Z,100877.75
2022-11-20T15:45:20.376Z,100890.47
2022-11-20T15:48:48.861Z,100886.94
2022-11-20T15:52:13.154Z,100889.47
2022-11-20T15:55:35.374Z,100886.84
2022-11-20T15:58:57.417Z,100881.66
2022-11-20T16:02:19.709Z,100885.03
2022-11-20T16:05:41.688Z,100886.66
2022-11-20T16:09:05.248Z,100885.81
2022-11-20T16:12:44.985Z,100878.00
2022-11-20T16:16:11.178Z,100875.56
2022-11-20T16:19:33.011Z,100870.38
2022-11-20T16:22:54.630Z,100873.63
2022-11-20T16:26:19.988Z,100880.47
2022-11-20T16:29:42.142Z,100879.56
2022-11-20T16:33:05.343Z,100874.28
2022-11-20T16:36:28.521Z,100881.09
2022-11-20T16:39:50.483Z,100875.91
2022-11-20T16:43:16.189Z,100884.47
2022-11-20T16:46:40.932Z,100861.84
2022-11-20T16:50:03.177Z,100892.00
2022-11-20T16:53:25.319Z,100889.41
2022-11-20T16:56:48.128Z,100883.34
2022-11-20T17:00:12.764Z,100878.97
2022-11-20T17:03:34.607Z,100891.75
2022-11-20T17:06:56.770Z,100883.97
2022-11-20T17:10:18.886Z,100886.56
2022-11-20T17:13:41.418Z,100874.38
2022-11-20T17:17:05.077Z,100883.06
2022-11-20T17:20:26.886Z,100886.47
2022-11-20T17:23:49.302Z,100885.47
2022-11-20T17:27:11.109Z,100894.81
2022-11-20T17:30:33.075Z,100887.00
2022-11-20T17:33:56.606Z,100893.94
2022-11-20T17:37:18.713Z,100900.69
2022-11-20T17:40:40.564Z,100899.81
2022-11-20T17:44:03.527Z,100895.63
2022-11-20T17:47:26.029Z,100896.47
2022-11-20T17:50:49.583Z,100897.13
2022-11-20T17:54:12.442Z,100899.78
2022-11-20T17:57:52.146Z,100907.41
2022-11-20T18:01:14.599Z,100898.06
2022-11-20T18:04:36.290Z,100903.06
2022-11-20T18:07:59.964Z,100917.38
2022-11-20T18:11:24.173Z,100910.59
2022-11-20T18:14:45.780Z,100916.44
2022-11-20T18:18:07.990Z,100901.94
2022-11-20T18:21:31.696Z,100909.50
2022-11-20T18:24:55.366Z,100904.31
2022-11-20T18:28:19.939Z,100911.09
2022-11-20T18:31:42.923Z,100898.09
2022-11-20T18:35:05.939Z,100913.53
2022-11-20T18:38:27.755Z,100887.72
2022-11-20T18:42:08.427Z,100914.31
2022-11-20T18:45:30.542Z,100921.16
2022-11-20T18:48:53.207Z,100920.38
2022-11-20T18:52:15.265Z,100904.88
2022-11-20T18:55:37.544Z,100913.41
2022-11-20T18:59:01.935Z,100913.44
2022-11-20T19:02:24.319Z,100905.63
2022-11-20T19:05:46.104Z,100905.66
2022-11-20T19:09:10.236Z,100914.13
2022-11-20T19:12:32.064Z,100916.56
2022-11-20T19:15:55.412Z,100911.38
2022-11-20T19:19:17.633Z,100928.47
2022-11-20T19:22:39.618Z,100935.31
2022-11-20T19:26:01.675Z,100937.84
2022-11-20T19:29:25.813Z,100939.69
2022-11-20T19:32:50.267Z,100944.00
2022-11-20T19:36:14.038Z,100946.63
2022-11-20T19:39:36.478Z,100949.22
2022-11-20T19:42:58.326Z,100945.97
2022-11-20T19:46:21.143Z,100945.25
2022-11-20T19:49:44.739Z,100945.25
2022-11-20T19:53:07.601Z,100952.13
2022-11-20T19:56:31.086Z,100946.25
2022-11-20T19:59:53.519Z,100940.56
2022-11-20T20:03:15.842Z,100944.94
2022-11-20T20:06:40.381Z,100953.50
2022-11-20T20:10:02.231Z,100936.47
2022-11-20T20:13:24.953Z,100944.38
2022-11-20T20:16:47.025Z,100956.47
2022-11-20T20:20:10.142Z,100957.38
2022-11-20T20:23:33.777Z,100943.72
2022-11-20T20:26:58.289Z,100963.50
2022-11-20T20:30:21.140Z,100953.28
2022-11-20T20:33:46.680Z,100955.25
2022-11-20T20:37:08.959Z,100965.50
2022-11-20T20:40:32.527Z,100955.34
2022-11-20T20:44:12.614Z,100955.34
2022-11-20T20:47:35.862Z,100958.06
2022-11-20T20:50:58.969Z,100957.22
2022-11-20T20:54:21.370Z,100957.38
2022-11-20T20:57:44.864Z,100948.81
2022-11-20T21:01:08.384Z,100959.25
2022-11-20T21:04:30.331Z,100960.97
2022-11-20T21:08:10.119Z,100959.31
2022-11-20T21:11:32.197Z,100965.16
2022-11-20T21:14:55.565Z,100978.94
2022-11-20T21:18:18.587Z,100962.66
2022-11-20T21:22:00.685Z,100976.56
2022-11-20T21:25:22.796Z,100960.34
2022-11-20T21:28:45.102Z,100956.13
2022-11-20T21:32:08.314Z,100943.41
2022-11-20T21:35:30.186Z,100953.81
2022-11-20T21:38:53.370Z,100951.28
2022-11-20T21:42:17.653Z,100948.81
2022-11-20T21:45:39.630Z,100956.44
2022-11-20T21:49:06.541Z,100955.66
2022-11-20T21:52:28.596Z,100940.41
2022-11-20T21:55:55.173Z,100946.34
2022-11-20T21:59:16.649Z,100958.25
2022-11-20T22:02:39.964Z,100978.75
2022-11-20T22:06:03.407Z,100974.56
2022-11-20T22:09:25.356Z,100967.00
2022-11-20T22:12:47.459Z,100953.47
2022-11-20T22:16:08.491Z,100943.13
2022-11-20T22:19:30.407Z,100956.00
2022-11-20T22:22:53.389Z,100959.47
2022-11-20T22:26:16.899Z,100956.78
2022-11-20T22:29:39.067Z,100959.47
2022-11-20T22:33:05.774Z,100955.25
2022-11-20T22:36:31.193Z,100957.03
2022-11-20T22:39:54.445Z,100948.38
2022-11-20T22:43:16.562Z,100950.22
2022-11-20T22:46:39.302Z,100950.22
2022-11-20T22:50:03.402Z,100937.50
2022-11-20T22:53:25.036Z,100952.09
2022-11-20T22:56:49.209Z,100933.41
2022-11-20T23:00:12.278Z,100933.50
2022-11-20T23:03:34.463Z,100925.94
2022-11-20T23:06:56.272Z,100930.97
2022-11-20T23:10:18.270Z,100927.69
2022-11-20T23:13:42.332Z,100927.63
2022-11-20T23:17:04.164Z,100908.03
2022-11-20T23:20:26.300Z,100917.50
2022-11-20T23:23:50.387Z,100919.28
2022-11-20T23:27:12.249Z,100932.97
2022-11-20T23:30:36.337Z,100924.53
2022-11-20T23:33:58.563Z,100928.78
2022-11-20T23:37:20.363Z,100931.38
2022-11-20T23:40:42.620Z,100921.13
2022-11-20T23:44:04.707Z,100918.66
2022-11-20T23:47:28.334Z,100926.38
2022-11-20T23:50:50.417Z,100930.69
2022-11-20T23:54:12.589Z,100922.19
2022-11-20T23:57:34.737Z,100924.06
